Pagina principale
METAR-TAF:

METAR-TAF

Aeroporti :

Kélibia, Tunisia

latitudine: 36-51N, longitudine: 011-05E, altezza: 29 m

Osservazione

Il bollettino è stato emesso 6 ore e 57 minuti fa, alle 05:00 UTC
Vento 4 kt da ovest/nord-ovest, variando fra ovest/sud-ovest e nord/nord-est
Temperature 23°C
Umidità 94%
Pressione 1011 hPa

METAR: DTTL 210500Z AUTO 30004KT 240V030 NCD 23/22 Q1011

Ora: 12:57 (11:57 UTC)


TAF: mancante

Osservazioni e previsioni meteorologiche di più di 4000 aeroporti (messaggi METAR e TAF).

Le stazioni disponibili sono rappresentate dai dischi gialli e rossi sulla carta.

Puntare il mouse per vedere il nome della stazione.

Clicca sopra per visualizzare le osservazioni e previsioni meteorologiche.

Per cambiare la mappa : fare clic sui pulsanti verdi con una croce nera per ingrandire, il pulsante verde con un trattino per diminuire, o sulla freccia verde per le mappe adiacenti.


METAR-TAF: